KHJO

Details ICAO KHJO
Name HANFORD MUNI
Region United States
Timezone America/Los_Angeles (UTC-7.0)
Plans Departing 13
Arriving 2
Stats Elevation 244 ft / 74 m (AMSL)
Location 36.316722° -119.627652°
Runways 1
Magnetic Variation 12.679° E
Sunrise 2018-05-23 12:47:52 UTC / 2018-05-23 05:47:52 Local
Sunset 2018-05-24 03:05:35 UTC / 2018-05-23 20:05:35 Local
Advertisement - Login to hide

Runways

ID Width Length Bearing (true) Bearing (mag) Surface Threshold Offset Overrun Length
14 75 ft / 23 m 5,182 ft / 1,579 m 151.67° 138.99° Asphalt 0 ft / 0 m 0 ft / 0 m
32 75 ft / 23 m 5,182 ft / 1,579 m 331.68° 319.00° Asphalt 284 ft / 87 m 0 ft / 0 m

Map

Weather


0- 5 10 15 20 25 30 35+ Temperature / ° C

Clouds and Precipitation
Forecast for 2018-05-24 00:00 UTC. Updated 5 hours ago

Ground ~20,000 ft ~40,000 ft Winds

METAR

KHJO 240353Z AUTO 33009KT 10SM CLR 25/13 A2987 RMK AO2 SLP116 T02500128

TAF

Not found

Frequencies

Recorded 134.75 MHz ASOS
Approach 123.90 MHz FRESNO APP/DEP
Unicom 122.80 MHz CTAF/UNICOM
Warning: Do not use this data for real-world aviation or navigation. No guarantee of current accuracy is given.